Time;durP1;ratioP1;P1;durP2;ratioP2;P2;SDS_P1;SDS_P2;PMS_P1;PMS_P2;Temp;Humidity;BMP_temperature;BMP_pressure;BME280_temperature;BME280_humidity;BME280_pressure;Samples;Min_cycle;Max_cycle;Signal;HPM_P1;HPM_P2
2024/04/06 00:01:18;;;;;;;;;;;16.70;57.60;;;;;;5044454;27;88720;-55
2024/04/06 00:03:44;;;;;;;;;;;16.70;57.70;;;;;;5045414;27;88741;-54
2024/04/06 00:06:09;;;;;;;;;;;16.70;57.80;;;;;;5045515;27;87030;-54
2024/04/06 00:08:35;;;;;;;;;;;16.70;57.70;;;;;;5041354;28;87204;-54
2024/04/06 00:11:00;;;;;;;;;;;16.60;57.70;;;;;;5044984;28;87673;-54
2024/04/06 00:13:26;;;;;;;;;;;16.60;57.70;;;;;;5044111;28;87084;-53
2024/04/06 00:15:51;;;;;;;;;;;16.60;57.70;;;;;;5048083;27;88012;-54
2024/04/06 00:18:17;;;;;;;;;;;16.60;57.60;;;;;;5043118;27;87025;-55
2024/04/06 00:20:42;;;;;;;;;;;16.60;57.60;;;;;;5045715;28;87073;-54
2024/04/06 00:23:08;;;;;;;;;;;16.60;57.70;;;;;;5044247;27;89891;-53
2024/04/06 00:25:33;;;;;;;;;;;16.60;57.70;;;;;;5045633;28;87890;-52
2024/04/06 00:27:59;;;;;;;;;;;16.60;57.70;;;;;;5044861;28;87433;-55
2024/04/06 00:30:25;;;;;;;;;;;16.60;57.70;;;;;;5045158;28;87723;-55
2024/04/06 00:32:50;;;;;;;;;;;16.50;57.70;;;;;;5044738;28;87124;-53
2024/04/06 00:35:16;;;;;;;;;;;16.50;57.70;;;;;;5042491;27;87443;-53
2024/04/06 00:37:42;;;;;;;;;;;16.50;57.70;;;;;;5044806;28;88661;-54
2024/04/06 00:40:08;;;;;;;;;;;16.50;57.60;;;;;;5045618;27;87014;-51
2024/04/06 00:42:34;;;;;;;;;;;16.40;57.60;;;;;;5042069;27;89010;-54
2024/04/06 00:44:59;;;;;;;;;;;16.40;57.70;;;;;;5042813;27;87223;-54
2024/04/06 00:47:25;;;;;;;;;;;16.50;57.70;;;;;;5043919;27;88728;-54
2024/04/06 00:49:51;;;;;;;;;;;16.40;57.70;;;;;;5044113;28;86972;-53
2024/04/06 00:52:16;;;;;;;;;;;16.40;57.70;;;;;;5043643;27;87442;-54
2024/04/06 00:54:42;;;;;;;;;;;16.40;57.80;;;;;;5044491;27;87865;-55
2024/04/06 00:57:08;;;;;;;;;;;16.40;58.40;;;;;;5045243;27;87629;-53
2024/04/06 00:59:34;;;;;;;;;;;16.40;57.80;;;;;;5048019;27;86986;-54
2024/04/06 01:02:00;;;;;;;;;;;16.30;57.70;;;;;;5042933;28;87960;-52
2024/04/06 01:04:26;;;;;;;;;;;16.30;57.70;;;;;;5044644;28;86363;-54
2024/04/06 01:06:51;;;;;;;;;;;16.30;57.80;;;;;;5040316;27;86969;-54
2024/04/06 01:09:17;;;;;;;;;;;16.30;57.80;;;;;;5041305;28;88114;-51
2024/04/06 01:11:42;;;;;;;;;;;16.30;57.70;;;;;;5038289;28;88383;-52
2024/04/06 01:14:08;;;;;;;;;;;16.30;57.70;;;;;;5044746;28;88866;-51
2024/04/06 01:16:34;;;;;;;;;;;16.30;57.90;;;;;;5044440;27;87284;-54
2024/04/06 01:18:59;;;;;;;;;;;16.20;57.70;;;;;;5042722;28;87046;-53
2024/04/06 01:21:26;;;;;;;;;;;16.20;57.80;;;;;;5046756;28;87297;-54
2024/04/06 01:23:52;;;;;;;;;;;16.20;57.70;;;;;;5044657;27;86923;-55
2024/04/06 01:26:17;;;;;;;;;;;16.20;57.70;;;;;;5043722;27;87588;-51
2024/04/06 01:28:43;;;;;;;;;;;16.20;57.70;;;;;;5041237;28;87637;-54
2024/04/06 01:31:09;;;;;;;;;;;16.10;57.70;;;;;;5044435;27;87094;-52
2024/04/06 01:33:35;;;;;;;;;;;16.10;57.70;;;;;;5043384;27;88048;-54
2024/04/06 01:36:00;;;;;;;;;;;16.10;57.80;;;;;;5042487;28;88291;-53
2024/04/06 01:38:26;;;;;;;;;;;16.10;57.80;;;;;;5043563;27;87090;-52
2024/04/06 01:40:52;;;;;;;;;;;16.10;57.80;;;;;;5047261;27;87278;-53
2024/04/06 01:43:17;;;;;;;;;;;16.10;58.40;;;;;;5042489;28;87001;-53
2024/04/06 01:45:43;;;;;;;;;;;16.00;57.80;;;;;;5043132;27;87618;-52
2024/04/06 01:48:08;;;;;;;;;;;16.00;57.80;;;;;;5042500;28;87756;-54
2024/04/06 01:50:34;;;;;;;;;;;16.00;57.70;;;;;;5044104;28;88767;-55
2024/04/06 01:52:59;;;;;;;;;;;16.00;57.80;;;;;;5044173;28;86851;-51
2024/04/06 01:55:25;;;;;;;;;;;16.00;57.80;;;;;;5044025;28;86984;-52
2024/04/06 01:57:50;;;;;;;;;;;16.00;57.80;;;;;;5044491;27;86967;-51
2024/04/06 02:00:16;;;;;;;;;;;16.00;57.80;;;;;;5041999;27;88298;-52
2024/04/06 02:02:42;;;;;;;;;;;16.00;57.80;;;;;;5043511;27;87682;-54
2024/04/06 02:05:07;;;;;;;;;;;15.90;57.80;;;;;;5040888;27;88127;-51
2024/04/06 02:07:33;;;;;;;;;;;15.90;57.80;;;;;;5039551;28;87667;-52
2024/04/06 02:09:58;;;;;;;;;;;15.90;57.80;;;;;;5040193;28;87082;-54
2024/04/06 02:12:24;;;;;;;;;;;15.90;57.90;;;;;;5043455;28;86976;-54
2024/04/06 02:14:49;;;;;;;;;;;15.90;57.90;;;;;;5043620;28;87952;-55
2024/04/06 02:17:15;;;;;;;;;;;15.80;57.80;;;;;;5043252;28;86265;-52
2024/04/06 02:19:41;;;;;;;;;;;15.80;57.90;;;;;;5043621;28;87206;-54
2024/04/06 02:22:06;;;;;;;;;;;15.80;58.00;;;;;;5042244;27;87727;-55
2024/04/06 02:24:34;;;;;;;;;;;15.80;58.00;;;;;;5046352;27;88032;-54
2024/04/06 02:26:59;;;;;;;;;;;15.80;57.90;;;;;;5045575;28;87614;-55
2024/04/06 02:29:25;;;;;;;;;;;15.70;57.90;;;;;;5047797;28;87015;-54
2024/04/06 02:31:52;;;;;;;;;;;15.70;57.90;;;;;;5047608;27;87575;-56
2024/04/06 02:34:17;;;;;;;;;;;15.70;58.00;;;;;;5047409;27;88959;-54
2024/04/06 02:36:43;;;;;;;;;;;15.70;58.00;;;;;;5045306;27;87959;-56
2024/04/06 02:39:12;;;;;;;;;;;15.70;58.00;;;;;;5047582;28;87559;-55
2024/04/06 02:41:38;;;;;;;;;;;15.70;58.00;;;;;;5047329;28;86945;-56
2024/04/06 02:44:03;;;;;;;;;;;15.60;58.00;;;;;;5046635;27;87045;-53
2024/04/06 02:46:29;;;;;;;;;;;15.60;58.00;;;;;;5048525;27;87032;-54
2024/04/06 02:48:54;;;;;;;;;;;15.60;58.00;;;;;;5046665;28;88021;-55
2024/04/06 02:51:20;;;;;;;;;;;15.60;58.00;;;;;;5046975;27;87806;-55
2024/04/06 02:53:46;;;;;;;;;;;15.60;58.00;;;;;;5045585;27;87520;-54
2024/04/06 02:56:12;;;;;;;;;;;15.50;58.00;;;;;;5047312;27;87004;-52
2024/04/06 02:58:37;;;;;;;;;;;15.50;58.00;;;;;;5043979;27;86986;-55
2024/04/06 03:01:03;;;;;;;;;;;15.50;58.00;;;;;;5045978;27;87880;-56
2024/04/06 03:03:28;;;;;;;;;;;15.50;58.00;;;;;;5044378;27;87238;-54
2024/04/06 03:05:54;;;;;;;;;;;15.50;58.00;;;;;;5046287;28;86862;-53
2024/04/06 03:08:20;;;;;;;;;;;15.50;58.10;;;;;;5048827;28;87824;-53
2024/04/06 03:10:45;;;;;;;;;;;15.50;58.00;;;;;;5046953;27;87188;-53
2024/04/06 03:13:11;;;;;;;;;;;15.50;58.00;;;;;;5045058;27;89487;-55
2024/04/06 03:15:36;;;;;;;;;;;15.50;58.00;;;;;;5047082;28;87396;-55
2024/04/06 03:18:03;;;;;;;;;;;15.40;58.00;;;;;;5042831;27;87144;-55
2024/04/06 03:20:29;;;;;;;;;;;15.40;58.00;;;;;;5045886;27;87797;-54
2024/04/06 03:23:04;;;;;;;;;;;15.40;58.00;;;;;;5045871;28;86962;-54
2024/04/06 03:25:31;;;;;;;;;;;15.40;58.10;;;;;;5045080;28;87951;-52
2024/04/06 03:27:56;;;;;;;;;;;15.40;58.00;;;;;;5045294;27;88721;-55
2024/04/06 03:30:23;;;;;;;;;;;15.40;58.00;;;;;;5050073;27;86668;-54
2024/04/06 03:32:49;;;;;;;;;;;15.30;58.00;;;;;;5044348;27;88617;-52
2024/04/06 03:35:14;;;;;;;;;;;15.40;58.00;;;;;;5043929;28;86903;-55
2024/04/06 03:37:40;;;;;;;;;;;15.30;58.00;;;;;;5045062;28;88702;-52
2024/04/06 03:40:06;;;;;;;;;;;15.30;58.00;;;;;;5046033;27;87421;-53
2024/04/06 03:42:32;;;;;;;;;;;15.30;58.00;;;;;;5045698;28;86997;-55
2024/04/06 03:44:59;;;;;;;;;;;15.30;58.00;;;;;;5046839;27;87056;-54
2024/04/06 03:47:24;;;;;;;;;;;15.30;58.10;;;;;;5046044;28;87723;-52
2024/04/06 03:49:50;;;;;;;;;;;15.30;58.00;;;;;;5048017;28;87929;-52
2024/04/06 03:52:15;;;;;;;;;;;15.20;58.00;;;;;;5044255;28;87658;-51
2024/04/06 03:54:41;;;;;;;;;;;15.20;58.10;;;;;;5046893;28;86275;-53
2024/04/06 03:57:06;;;;;;;;;;;15.20;58.00;;;;;;5043902;28;86956;-51
2024/04/06 03:59:32;;;;;;;;;;;15.20;58.10;;;;;;5041565;28;90743;-52
2024/04/06 04:01:58;;;;;;;;;;;15.10;58.10;;;;;;5043700;28;88675;-53
2024/04/06 04:04:24;;;;;;;;;;;15.10;58.10;;;;;;5045985;28;89464;-54
2024/04/06 04:06:50;;;;;;;;;;;15.10;58.10;;;;;;5044290;27;88529;-52
2024/04/06 04:09:16;;;;;;;;;;;15.10;58.00;;;;;;5039020;28;87270;-50
2024/04/06 04:11:42;;;;;;;;;;;15.10;58.00;;;;;;5045849;28;87990;-55
2024/04/06 04:14:08;;;;;;;;;;;15.10;58.00;;;;;;5045640;27;87389;-54
2024/04/06 04:16:34;;;;;;;;;;;15.10;58.10;;;;;;5040890;28;87393;-53
2024/04/06 04:18:59;;;;;;;;;;;15.00;58.00;;;;;;5046512;27;86164;-52
2024/04/06 04:21:25;;;;;;;;;;;15.10;58.10;;;;;;5045991;27;87009;-50
2024/04/06 04:23:51;;;;;;;;;;;15.10;58.10;;;;;;5042824;28;88249;-54
2024/04/06 04:26:17;;;;;;;;;;;15.00;58.10;;;;;;5039703;28;89839;-53
2024/04/06 04:28:42;;;;;;;;;;;15.00;58.10;;;;;;5044021;28;87061;-51
2024/04/06 04:31:15;;;;;;;;;;;15.00;58.80;;;;;;5045464;28;87285;-51
2024/04/06 04:33:41;;;;;;;;;;;14.90;58.20;;;;;;5048328;28;87455;-52
2024/04/06 04:36:07;;;;;;;;;;;14.90;58.20;;;;;;5045964;28;86947;-52
2024/04/06 04:38:33;;;;;;;;;;;14.90;58.20;;;;;;5044708;28;87695;-54
2024/04/06 04:40:59;;;;;;;;;;;14.90;58.80;;;;;;5045885;27;87042;-51
2024/04/06 04:43:24;;;;;;;;;;;14.90;58.20;;;;;;5046122;27;88021;-50
2024/04/06 04:45:50;;;;;;;;;;;14.90;58.20;;;;;;5042284;27;87619;-53
2024/04/06 04:48:15;;;;;;;;;;;14.90;58.20;;;;;;5045056;27;87068;-51
2024/04/06 04:50:41;;;;;;;;;;;14.90;58.20;;;;;;5043002;27;87945;-53
2024/04/06 04:53:07;;;;;;;;;;;14.80;58.10;;;;;;5041707;27;87448;-51
2024/04/06 04:55:32;;;;;;;;;;;14.80;58.20;;;;;;5048396;27;87137;-51
2024/04/06 04:57:58;;;;;;;;;;;14.80;58.30;;;;;;5043954;27;87584;-51
2024/04/06 05:00:24;;;;;;;;;;;14.80;58.30;;;;;;5044784;27;87721;-51
2024/04/06 05:02:50;;;;;;;;;;;14.80;58.30;;;;;;5042810;27;87048;-52
2024/04/06 05:05:16;;;;;;;;;;;14.80;58.30;;;;;;5045371;27;87550;-51
2024/04/06 05:07:41;;;;;;;;;;;14.70;58.30;;;;;;5042668;27;86363;-51
2024/04/06 05:10:09;;;;;;;;;;;14.70;58.30;;;;;;5042182;28;86936;-51
2024/04/06 05:12:35;;;;;;;;;;;14.70;58.30;;;;;;5044039;27;88460;-54
2024/04/06 05:15:01;;;;;;;;;;;14.70;58.30;;;;;;5042252;27;87992;-52
2024/04/06 05:17:27;;;;;;;;;;;14.70;58.20;;;;;;5047585;27;87625;-52
2024/04/06 05:19:52;;;;;;;;;;;14.70;58.30;;;;;;5042225;27;87608;-54
2024/04/06 05:22:18;;;;;;;;;;;14.70;58.40;;;;;;5036069;28;86970;-55
2024/04/06 05:24:44;;;;;;;;;;;14.70;58.40;;;;;;5042580;27;88881;-52
2024/04/06 05:27:09;;;;;;;;;;;14.60;58.40;;;;;;5041701;27;87609;-53
2024/04/06 05:29:35;;;;;;;;;;;14.70;58.40;;;;;;5045144;27;87011;-53
2024/04/06 05:32:01;;;;;;;;;;;14.60;58.40;;;;;;5045274;28;86733;-55
2024/04/06 05:34:26;;;;;;;;;;;14.60;58.50;;;;;;5043552;28;87057;-52
2024/04/06 05:36:53;;;;;;;;;;;14.60;58.30;;;;;;5044815;27;87069;-52
2024/04/06 05:39:18;;;;;;;;;;;14.60;59.00;;;;;;5046214;27;89482;-52
2024/04/06 05:41:44;;;;;;;;;;;14.60;58.40;;;;;;5042281;28;88021;-52
2024/04/06 05:44:10;;;;;;;;;;;14.60;58.40;;;;;;5040389;27;87384;-52
2024/04/06 05:46:35;;;;;;;;;;;14.60;58.40;;;;;;5040451;28;87307;-54
2024/04/06 05:49:02;;;;;;;;;;;14.50;58.60;;;;;;5043128;28;87013;-52
2024/04/06 05:51:32;;;;;;;;;;;14.50;58.60;;;;;;5043406;28;87590;-54
2024/04/06 05:53:57;;;;;;;;;;;14.50;58.60;;;;;;5043275;27;87593;-52
2024/04/06 05:56:23;;;;;;;;;;;14.50;58.60;;;;;;5044847;27;87180;-54
2024/04/06 05:58:48;;;;;;;;;;;14.50;58.60;;;;;;5043895;27;87638;-53
2024/04/06 06:01:14;;;;;;;;;;;14.60;58.70;;;;;;5042352;27;87664;-53
2024/04/06 06:03:39;;;;;;;;;;;14.60;58.70;;;;;;5043456;28;88505;-54
2024/04/06 06:06:05;;;;;;;;;;;14.50;58.70;;;;;;5043541;28;87824;-51
2024/04/06 06:08:30;;;;;;;;;;;14.50;58.80;;;;;;5040151;27;86947;-54
2024/04/06 06:10:56;;;;;;;;;;;14.50;58.80;;;;;;5043530;27;87366;-53
2024/04/06 06:13:22;;;;;;;;;;;14.50;58.90;;;;;;5042963;28;87049;-52
2024/04/06 06:15:47;;;;;;;;;;;14.50;58.80;;;;;;5044339;27;87986;-52
2024/04/06 06:18:13;;;;;;;;;;;14.50;58.80;;;;;;5044171;28;86977;-52
2024/04/06 06:20:38;;;;;;;;;;;14.50;58.80;;;;;;5046532;27;86832;-55
2024/04/06 06:23:04;;;;;;;;;;;14.60;58.90;;;;;;5041844;28;87737;-51
2024/04/06 06:25:31;;;;;;;;;;;14.50;58.90;;;;;;5041937;27;87014;-55
2024/04/06 06:27:57;;;;;;;;;;;14.50;58.90;;;;;;5039094;28;87884;-54
2024/04/06 06:30:22;;;;;;;;;;;14.60;58.90;;;;;;5041033;28;87675;-55
2024/04/06 06:32:48;;;;;;;;;;;14.50;58.80;;;;;;5038187;27;87029;-55
2024/04/06 06:35:14;;;;;;;;;;;14.50;59.00;;;;;;5043290;28;87287;-52
2024/04/06 06:37:39;;;;;;;;;;;14.50;59.00;;;;;;5042727;27;87541;-52
2024/04/06 06:40:05;;;;;;;;;;;14.50;58.90;;;;;;5042475;28;87042;-54
2024/04/06 06:42:30;;;;;;;;;;;14.60;59.00;;;;;;5046427;27;87860;-50
2024/04/06 06:44:56;;;;;;;;;;;14.50;59.00;;;;;;5044386;27;86281;-53
2024/04/06 06:47:25;;;;;;;;;;;14.60;59.00;;;;;;5041967;27;87289;-52
2024/04/06 06:49:50;;;;;;;;;;;14.50;58.90;;;;;;5041938;28;87551;-53
2024/04/06 06:52:16;;;;;;;;;;;14.60;58.90;;;;;;5042603;27;87976;-51
2024/04/06 06:54:41;;;;;;;;;;;14.60;59.00;;;;;;5043020;28;86986;-55
2024/04/06 06:57:07;;;;;;;;;;;14.60;59.00;;;;;;5041809;28;87632;-53
2024/04/06 06:59:33;;;;;;;;;;;14.60;59.10;;;;;;5042502;28;86927;-54
2024/04/06 07:01:58;;;;;;;;;;;14.60;59.00;;;;;;5043980;27;86916;-52
2024/04/06 07:04:24;;;;;;;;;;;14.60;59.00;;;;;;5045400;27;87090;-51
2024/04/06 07:06:49;;;;;;;;;;;14.60;59.00;;;;;;5042796;27;86955;-51
2024/04/06 07:09:15;;;;;;;;;;;14.60;59.10;;;;;;5043636;27;86876;-54
2024/04/06 07:11:42;;;;;;;;;;;14.60;59.10;;;;;;5046172;27;87262;-54
2024/04/06 07:14:11;;;;;;;;;;;14.60;59.10;;;;;;5041634;28;87228;-52
2024/04/06 07:16:37;;;;;;;;;;;14.60;59.10;;;;;;5042875;27;89479;-53
2024/04/06 07:19:02;;;;;;;;;;;14.60;59.70;;;;;;5045268;27;86780;-52
2024/04/06 07:21:28;;;;;;;;;;;14.60;59.10;;;;;;5045466;27;87872;-50
2024/04/06 07:23:54;;;;;;;;;;;14.50;59.10;;;;;;5046603;27;88880;-52
2024/04/06 07:26:19;;;;;;;;;;;14.60;59.10;;;;;;5049799;27;87040;-54
2024/04/06 07:28:45;;;;;;;;;;;14.60;59.20;;;;;;5042748;27;89011;-52
2024/04/06 07:31:10;;;;;;;;;;;14.60;59.20;;;;;;5045833;27;87041;-53
2024/04/06 07:33:37;;;;;;;;;;;14.50;59.30;;;;;;5042012;27;87073;-53
2024/04/06 07:36:02;;;;;;;;;;;14.60;59.70;;;;;;5044213;28;88579;-52
2024/04/06 07:38:28;;;;;;;;;;;14.60;59.40;;;;;;5045946;27;87055;-50
2024/04/06 07:40:56;;;;;;;;;;;14.60;59.40;;;;;;5045850;27;87872;-54
2024/04/06 07:43:22;;;;;;;;;;;14.60;59.40;;;;;;5043173;27;89071;-52
2024/04/06 07:45:48;;;;;;;;;;;14.50;59.30;;;;;;5045839;27;88608;-51
2024/04/06 07:48:13;;;;;;;;;;;14.60;59.40;;;;;;5046785;28;87351;-52
2024/04/06 07:50:39;;;;;;;;;;;14.60;59.40;;;;;;5044388;28;88296;-54
2024/04/06 07:53:04;;;;;;;;;;;14.60;59.50;;;;;;5043992;28;87247;-51
2024/04/06 07:55:30;;;;;;;;;;;14.60;59.50;;;;;;5044320;28;88487;-52
2024/04/06 07:57:55;;;;;;;;;;;14.60;59.50;;;;;;5043783;28;86335;-50
2024/04/06 08:00:21;;;;;;;;;;;14.60;59.60;;;;;;5045382;28;86859;-51
2024/04/06 08:02:46;;;;;;;;;;;14.60;60.10;;;;;;5045460;27;87684;-52
2024/04/06 08:05:12;;;;;;;;;;;14.60;59.50;;;;;;5042922;27;88154;-54
2024/04/06 08:07:38;;;;;;;;;;;14.60;59.50;;;;;;5048515;27;89032;-52
2024/04/06 08:10:14;;;;;;;;;;;14.60;59.40;;;;;;5043892;28;86986;-54
2024/04/06 08:12:39;;;;;;;;;;;14.60;59.40;;;;;;5044040;28;86842;-52
2024/04/06 08:15:05;;;;;;;;;;;14.60;59.50;;;;;;5045833;28;87522;-54
2024/04/06 08:17:30;;;;;;;;;;;14.60;59.50;;;;;;5045573;28;88293;-51
2024/04/06 08:19:56;;;;;;;;;;;14.60;59.40;;;;;;5044189;27;87102;-52
2024/04/06 08:22:22;;;;;;;;;;;14.60;59.40;;;;;;5044491;28;87748;-52
2024/04/06 08:24:47;;;;;;;;;;;14.60;59.40;;;;;;5045772;28;86907;-52
2024/04/06 08:27:13;;;;;;;;;;;14.70;59.50;;;;;;5044742;27;87680;-54
2024/04/06 08:29:38;;;;;;;;;;;14.70;59.40;;;;;;5047674;28;88484;-49
2024/04/06 08:32:04;;;;;;;;;;;14.70;59.40;;;;;;5045670;27;88813;-50
2024/04/06 08:34:29;;;;;;;;;;;14.70;59.40;;;;;;5043349;28;87433;-53
2024/04/06 08:36:55;;;;;;;;;;;14.70;59.50;;;;;;5042332;28;87066;-52
2024/04/06 08:39:23;;;;;;;;;;;14.60;59.50;;;;;;5044077;28;87104;-54
2024/04/06 08:41:50;;;;;;;;;;;14.60;59.50;;;;;;5044440;27;87842;-55
2024/04/06 08:44:17;;;;;;;;;;;14.70;59.50;;;;;;5044725;27;87107;-52
2024/04/06 08:46:43;;;;;;;;;;;14.70;59.50;;;;;;5041877;28;87918;-52
2024/04/06 08:49:09;;;;;;;;;;;14.70;59.50;;;;;;5045586;27;87624;-55
2024/04/06 08:51:37;;;;;;;;;;;14.70;59.60;;;;;;5043454;27;87172;-52
2024/04/06 08:54:04;;;;;;;;;;;14.70;59.50;;;;;;5044307;28;88516;-51
2024/04/06 08:56:29;;;;;;;;;;;14.70;59.50;;;;;;5043330;27;87064;-51
2024/04/06 08:58:55;;;;;;;;;;;14.70;59.70;;;;;;5044036;28;87339;-52
2024/04/06 09:01:20;;;;;;;;;;;14.70;59.80;;;;;;5042731;27;87697;-51
2024/04/06 09:03:46;;;;;;;;;;;14.80;59.80;;;;;;5044176;28;87140;-55
2024/04/06 09:06:15;;;;;;;;;;;14.80;59.80;;;;;;5044028;28;86898;-52
2024/04/06 09:08:40;;;;;;;;;;;14.80;59.70;;;;;;5044309;27;87435;-54
2024/04/06 09:11:11;;;;;;;;;;;14.80;59.70;;;;;;5042374;28;86326;-51
2024/04/06 09:13:37;;;;;;;;;;;14.80;59.60;;;;;;5047845;27;87384;-52
2024/04/06 09:16:05;;;;;;;;;;;14.80;59.60;;;;;;5044595;27;86966;-52
2024/04/06 09:18:30;;;;;;;;;;;14.80;59.60;;;;;;5043183;27;88659;-52
2024/04/06 09:20:57;;;;;;;;;;;14.90;59.60;;;;;;5043996;28;88712;-55
2024/04/06 09:23:23;;;;;;;;;;;14.90;59.60;;;;;;5045103;28;86975;-52
2024/04/06 09:26:02;;;;;;;;;;;14.90;59.60;;;;;;5041791;27;87989;-53
2024/04/06 09:28:28;;;;;;;;;;;14.90;59.50;;;;;;5044626;28;90296;-52
2024/04/06 09:30:57;;;;;;;;;;;15.00;59.50;;;;;;5045201;28;87746;-52
2024/04/06 09:33:24;;;;;;;;;;;15.00;59.60;;;;;;5044206;27;88036;-52
2024/04/06 09:35:50;;;;;;;;;;;15.00;59.80;;;;;;5047411;28;87627;-55
2024/04/06 09:38:16;;;;;;;;;;;15.00;59.70;;;;;;5043678;27;87329;-53
2024/04/06 09:40:43;;;;;;;;;;;15.00;59.80;;;;;;5044448;27;88642;-53
2024/04/06 09:43:09;;;;;;;;;;;15.10;59.80;;;;;;5043177;27;87945;-52
2024/04/06 09:45:35;;;;;;;;;;;15.00;59.70;;;;;;5041103;28;88040;-49
2024/04/06 09:48:01;;;;;;;;;;;15.10;59.70;;;;;;5040222;28;87485;-50
2024/04/06 09:50:28;;;;;;;;;;;15.10;59.90;;;;;;5044639;28;87009;-52
2024/04/06 09:52:54;;;;;;;;;;;15.10;59.80;;;;;;5044214;27;86935;-55
2024/04/06 09:55:20;;;;;;;;;;;15.10;59.90;;;;;;5044443;27;87493;-54
2024/04/06 09:57:46;;;;;;;;;;;15.10;59.90;;;;;;5054545;27;87848;-53
2024/04/06 10:00:12;;;;;;;;;;;15.20;60.10;;;;;;5044175;27;87669;-53
2024/04/06 10:02:39;;;;;;;;;;;15.20;59.90;;;;;;5042468;27;87048;-54
2024/04/06 10:05:05;;;;;;;;;;;15.20;60.00;;;;;;5040961;28;87026;-51
2024/04/06 10:07:32;;;;;;;;;;;15.20;59.90;;;;;;5043656;28;88424;-55
2024/04/06 10:10:01;;;;;;;;;;;15.30;59.90;;;;;;5040532;28;87026;-55
2024/04/06 10:12:45;;;;;;;;;;;15.30;59.90;;;;;;5043981;28;87422;-55
2024/04/06 10:15:12;;;;;;;;;;;15.30;59.90;;;;;;5043798;28;87878;-55
2024/04/06 10:17:41;;;;;;;;;;;15.30;59.90;;;;;;5047096;28;87004;-54
2024/04/06 10:20:08;;;;;;;;;;;15.40;59.90;;;;;;5043196;28;87538;-54
2024/04/06 10:22:42;;;;;;;;;;;15.30;60.00;;;;;;5044597;27;87433;-54
2024/04/06 10:25:08;;;;;;;;;;;15.40;60.00;;;;;;5040457;28;86823;-54
2024/04/06 10:27:37;;;;;;;;;;;15.40;59.90;;;;;;5042874;27;87663;-51
2024/04/06 10:30:03;;;;;;;;;;;15.40;60.00;;;;;;5041118;28;86919;-53
2024/04/06 10:32:30;;;;;;;;;;;15.40;59.80;;;;;;5043616;27;88096;-51
2024/04/06 10:34:59;;;;;;;;;;;15.50;59.80;;;;;;5043872;27;87689;-53
2024/04/06 10:37:25;;;;;;;;;;;15.50;59.70;;;;;;5043390;27;87018;-53
2024/04/06 10:39:51;;;;;;;;;;;15.50;59.60;;;;;;5046135;28;87133;-55
2024/04/06 10:42:16;;;;;;;;;;;15.50;59.30;;;;;;5043788;27;87073;-55
2024/04/06 10:44:42;;;;;;;;;;;15.50;59.10;;;;;;5042349;27;87101;-51
2024/04/06 10:47:10;;;;;;;;;;;15.60;60.00;;;;;;5042970;27;88056;-57
2024/04/06 10:49:36;;;;;;;;;;;15.60;59.60;;;;;;5047007;27;86953;-51
2024/04/06 10:52:02;;;;;;;;;;;15.60;59.40;;;;;;5046067;28;87719;-53
2024/04/06 10:54:27;;;;;;;;;;;15.60;59.30;;;;;;5044217;28;87384;-50
2024/04/06 10:56:54;;;;;;;;;;;15.60;59.40;;;;;;5046988;27;87827;-52
2024/04/06 10:59:20;;;;;;;;;;;15.70;59.00;;;;;;5047092;27;88825;-55
2024/04/06 11:01:46;;;;;;;;;;;15.70;59.00;;;;;;5045496;27;86958;-51
2024/04/06 11:04:11;;;;;;;;;;;15.70;59.10;;;;;;5046137;28;86952;-54
2024/04/06 11:06:37;;;;;;;;;;;15.70;58.80;;;;;;5044223;28;88143;-52
2024/04/06 11:09:06;;;;;;;;;;;15.80;58.90;;;;;;5043858;27;87018;-52
2024/04/06 11:11:31;;;;;;;;;;;15.80;58.30;;;;;;5043349;28;87730;-52
2024/04/06 11:13:57;;;;;;;;;;;15.80;58.80;;;;;;5044877;27;87330;-54
2024/04/06 11:16:24;;;;;;;;;;;15.90;58.40;;;;;;5047113;27;86992;-52
2024/04/06 11:18:50;;;;;;;;;;;15.90;57.80;;;;;;5045151;28;87265;-52
2024/04/06 11:21:16;;;;;;;;;;;15.90;58.00;;;;;;5043958;28;89526;-54
2024/04/06 11:23:43;;;;;;;;;;;15.90;58.30;;;;;;5049166;27;87201;-52
2024/04/06 11:26:09;;;;;;;;;;;16.00;58.50;;;;;;5046356;27;88604;-49
2024/04/06 11:28:35;;;;;;;;;;;16.00;58.00;;;;;;5046696;28;87383;-48
2024/04/06 11:31:00;;;;;;;;;;;16.10;56.70;;;;;;5046768;27;87309;-49
2024/04/06 11:33:26;;;;;;;;;;;16.10;56.30;;;;;;5046696;27;87373;-50
2024/04/06 11:35:52;;;;;;;;;;;16.20;53.90;;;;;;5047092;28;87846;-50
2024/04/06 11:38:17;;;;;;;;;;;16.30;53.60;;;;;;5047327;27;86518;-51
2024/04/06 11:40:47;;;;;;;;;;;16.40;53.30;;;;;;5045986;27;87617;-43
2024/04/06 11:43:15;;;;;;;;;;;16.40;52.50;;;;;;5045981;27;87060;-46
2024/04/06 11:45:41;;;;;;;;;;;16.50;52.10;;;;;;5047089;28;87892;-46
2024/04/06 11:48:06;;;;;;;;;;;16.50;52.90;;;;;;5044111;28;87456;-47
2024/04/06 11:50:32;;;;;;;;;;;16.40;52.90;;;;;;5045826;27;87864;-46
2024/04/06 11:52:58;;;;;;;;;;;16.50;53.10;;;;;;5046329;28;88450;-46
2024/04/06 11:55:23;;;;;;;;;;;16.60;53.40;;;;;;5044663;28;87471;-45
2024/04/06 11:57:49;;;;;;;;;;;16.60;53.50;;;;;;5045122;27;87838;-47
2024/04/06 12:00:15;;;;;;;;;;;16.70;53.70;;;;;;5045427;28;87723;-46
2024/04/06 12:02:41;;;;;;;;;;;16.70;54.10;;;;;;5047141;28;86240;-46
2024/04/06 12:05:07;;;;;;;;;;;16.80;54.50;;;;;;5049111;27;87143;-46
2024/04/06 12:07:33;;;;;;;;;;;16.80;54.60;;;;;;5045867;27;87060;-47
2024/04/06 12:09:59;;;;;;;;;;;16.70;54.70;;;;;;5043358;27;87927;-48
2024/04/06 12:12:24;;;;;;;;;;;16.70;53.80;;;;;;5045976;27;87369;-51
2024/04/06 12:14:50;;;;;;;;;;;16.80;53.80;;;;;;5045218;28;87023;-59
2024/04/06 12:17:26;;;;;;;;;;;16.80;54.30;;;;;;5046064;27;87863;-59
2024/04/06 12:19:52;;;;;;;;;;;16.90;53.40;;;;;;5045798;27;88000;-62
2024/04/06 12:22:19;;;;;;;;;;;17.00;53.70;;;;;;5046136;27;86892;-48
2024/04/06 12:24:44;;;;;;;;;;;17.00;53.00;;;;;;5045904;28;87218;-61
2024/04/06 12:27:12;;;;;;;;;;;17.00;53.60;;;;;;5048250;27;86801;-56
2024/04/06 12:29:38;;;;;;;;;;;17.00;52.30;;;;;;5044944;28;87650;-56
2024/04/06 12:32:04;;;;;;;;;;;17.10;52.10;;;;;;5045725;27;87597;-41
2024/04/06 12:34:29;;;;;;;;;;;17.30;51.40;;;;;;5041596;27;88015;-42
2024/04/06 12:37:00;;;;;;;;;;;17.40;50.30;;;;;;5045173;28;87799;-47
2024/04/06 12:39:25;;;;;;;;;;;17.50;50.30;;;;;;5045596;27;88111;-43
2024/04/06 12:41:51;;;;;;;;;;;17.50;49.40;;;;;;5043232;27;86949;-47
2024/04/06 12:44:17;;;;;;;;;;;17.60;51.00;;;;;;5045819;27;87902;-45
2024/04/06 12:46:42;;;;;;;;;;;17.70;50.30;;;;;;5043888;27;87547;-49
2024/04/06 12:49:08;;;;;;;;;;;17.70;49.70;;;;;;5044976;28;87101;-52
2024/04/06 12:51:34;;;;;;;;;;;17.70;48.00;;;;;;5043979;28;87013;-49
2024/04/06 12:53:59;;;;;;;;;;;17.90;48.40;;;;;;5044701;28;86919;-45
2024/04/06 12:56:25;;;;;;;;;;;18.00;48.00;;;;;;5045343;28;86991;-49
2024/04/06 12:58:52;;;;;;;;;;;18.00;48.80;;;;;;5041104;28;88372;-53
2024/04/06 13:01:18;;;;;;;;;;;18.10;48.10;;;;;;5042460;28;86993;-49
2024/04/06 13:03:43;;;;;;;;;;;18.10;48.30;;;;;;5043311;27;87799;-45
2024/04/06 13:06:09;;;;;;;;;;;18.10;48.60;;;;;;5042853;27;87649;-43
2024/04/06 13:08:35;;;;;;;;;;;18.20;48.30;;;;;;5040680;28;87310;-49
2024/04/06 13:11:00;;;;;;;;;;;18.30;48.70;;;;;;5045559;28;87492;-57
2024/04/06 13:13:26;;;;;;;;;;;18.40;48.20;;;;;;5044872;28;87177;-47
2024/04/06 13:15:52;;;;;;;;;;;18.40;47.90;;;;;;5043393;28;87004;-47
2024/04/06 13:18:17;;;;;;;;;;;18.50;47.90;;;;;;5041723;27;87556;-41
2024/04/06 13:20:47;;;;;;;;;;;18.40;48.30;;;;;;5044935;28;86910;-49
2024/04/06 13:23:13;;;;;;;;;;;18.50;48.60;;;;;;5044236;27;88002;-50
2024/04/06 13:25:39;;;;;;;;;;;18.50;47.70;;;;;;5043943;28;89003;-53
2024/04/06 13:28:04;;;;;;;;;;;18.50;47.30;;;;;;5041924;27;87146;-52
2024/04/06 13:30:30;;;;;;;;;;;18.50;47.60;;;;;;5042892;28;86969;-50
2024/04/06 13:32:55;;;;;;;;;;;18.60;46.00;;;;;;5046224;27;88644;-54
2024/04/06 13:35:22;;;;;;;;;;;18.70;45.90;;;;;;5043652;28;87013;-51
2024/04/06 13:37:47;;;;;;;;;;;18.70;46.40;;;;;;5043970;27;87056;-51
2024/04/06 13:40:14;;;;;;;;;;;18.70;47.20;;;;;;5042619;28;86452;-51
2024/04/06 13:42:40;;;;;;;;;;;18.70;46.40;;;;;;5040745;27;87570;-47
2024/04/06 13:45:12;;;;;;;;;;;18.70;46.80;;;;;;5041758;27;87661;-45
2024/04/06 13:47:39;;;;;;;;;;;18.70;45.90;;;;;;5045090;27;87994;-53
2024/04/06 13:50:05;;;;;;;;;;;18.70;46.80;;;;;;5043645;27;87888;-48
2024/04/06 13:52:30;;;;;;;;;;;18.80;46.90;;;;;;5042629;27;88610;-48
2024/04/06 13:54:56;;;;;;;;;;;18.80;47.30;;;;;;5046597;27;87041;-49
2024/04/06 13:57:21;;;;;;;;;;;18.80;47.70;;;;;;5042724;28;87383;-47
2024/04/06 13:59:47;;;;;;;;;;;18.80;46.70;;;;;;5042998;27;86979;-50
2024/04/06 14:02:12;;;;;;;;;;;18.80;46.20;;;;;;5041432;28;87110;-50
2024/04/06 14:04:38;;;;;;;;;;;18.80;46.70;;;;;;5044568;27;86636;-49
2024/04/06 14:07:04;;;;;;;;;;;18.80;46.40;;;;;;5042218;27;87008;-47
2024/04/06 14:09:29;;;;;;;;;;;18.80;47.00;;;;;;5042748;27;87534;-49